< < Back
Terminal Aerodrome Forecast


Current Version              Previous Versions:   1  2  3  4  5  6  7  8  9  

Terminal Aerodrome Forecast

537
FTUS42 KMLB 241700
TAFDAB
TAF
KDAB 241736Z 2418/2518 01013KT P6SM SCT045 SCT140
      TEMPO 2418/2422 BKN040
     FM250000 01005KT P6SM FEW250=

Latest METAR

278
SAUS80 KWBC 250100 RRA
MTRDAB
METAR KDAB 250053Z 32006KT 10SM SCT045 19/15 A2996 RMK AO2 SLP145
T01940150


USA.gov is the U.S. government's official web portal to all federal, state and local government web resources and services.